Time;durP1;ratioP1;P1;durP2;ratioP2;P2;SDS_P1;SDS_P2;PMS_P1;PMS_P2;Temp;Humidity;BMP_temperature;BMP_pressure;BME280_temperature;BME280_humidity;BME280_pressure;Samples;Min_cycle;Max_cycle;Signal;HPM_P1;HPM_P2
2022/07/16 00:03:05;;;;;;;6.20;4.57;;;14.70;91.00;;;;;;5070501;28;20078;-49
2022/07/16 00:05:33;;;;;;;7.45;5.30;;;14.80;91.20;;;;;;5052797;28;20098;-53
2022/07/16 00:07:58;;;;;;;7.57;5.75;;;14.80;91.10;;;;;;5052691;28;20040;-48
2022/07/16 00:10:24;;;;;;;9.25;5.60;;;14.70;91.20;;;;;;5069995;28;20082;-49
2022/07/16 00:12:50;;;;;;;7.95;5.95;;;14.80;91.30;;;;;;5052455;28;20029;-49
2022/07/16 00:15:16;;;;;;;7.75;5.80;;;14.80;91.30;;;;;;5070015;28;20060;-48
2022/07/16 00:17:41;;;;;;;8.15;6.00;;;14.80;91.30;;;;;;5069788;28;20068;-49
2022/07/16 00:20:08;;;;;;;9.32;5.50;;;14.80;91.40;;;;;;5051947;28;20028;-59
2022/07/16 00:22:33;;;;;;;10.00;6.07;;;14.80;91.40;;;;;;5051740;28;20047;-62
2022/07/16 00:25:01;;;;;;;10.07;6.70;;;14.90;91.50;;;;;;5070036;28;20457;-67
2022/07/16 00:27:29;;;;;;;13.15;6.97;;;14.90;91.50;;;;;;5070030;28;20033;-61
2022/07/16 00:29:55;;;;;;;10.68;6.50;;;14.90;91.60;;;;;;5052419;28;20639;-59
2022/07/16 00:32:22;;;;;;;11.10;6.40;;;14.90;91.60;;;;;;5052168;28;20036;-50
2022/07/16 00:34:48;;;;;;;11.13;6.90;;;14.90;91.60;;;;;;5068646;28;20033;-48
2022/07/16 00:37:16;;;;;;;9.90;5.65;;;14.80;91.70;;;;;;5062650;28;20636;-50
2022/07/16 00:39:42;;;;;;;8.07;5.93;;;14.90;91.80;;;;;;5051647;28;20024;-49
2022/07/16 00:42:10;;;;;;;10.02;5.13;;;14.90;91.80;;;;;;5069503;28;20031;-48
2022/07/16 00:44:35;;;;;;;8.95;6.13;;;14.90;91.80;;;;;;5069525;28;20037;-51
2022/07/16 00:47:01;;;;;;;9.63;3.85;;;14.90;91.90;;;;;;5069615;28;20727;-48
2022/07/16 00:49:29;;;;;;;9.27;4.65;;;14.90;92.00;;;;;;5069582;28;20035;-48
2022/07/16 00:51:57;;;;;;;8.75;3.83;;;14.90;92.00;;;;;;5068403;28;20039;-48
2022/07/16 00:54:25;;;;;;;9.45;3.05;;;14.90;92.10;;;;;;5069508;28;20028;-47
2022/07/16 00:56:50;;;;;;;5.47;1.65;;;14.90;92.00;;;;;;5052175;28;20438;-49
2022/07/16 00:59:16;;;;;;;8.20;2.35;;;14.90;91.90;;;;;;5031865;28;20029;-48
2022/07/16 01:01:42;;;;;;;7.18;1.75;;;14.90;91.90;;;;;;5049314;28;20455;-47
2022/07/16 01:04:10;;;;;;;5.15;1.70;;;14.80;91.70;;;;;;5033035;28;20450;-48
2022/07/16 01:06:35;;;;;;;7.38;1.67;;;14.70;91.60;;;;;;5049801;28;20021;-47
2022/07/16 01:09:01;;;;;;;6.07;2.00;;;14.70;91.50;;;;;;5049434;28;20075;-47
2022/07/16 01:11:30;;;;;;;6.40;2.53;;;14.70;91.50;;;;;;5049417;28;20438;-48
2022/07/16 01:13:55;;;;;;;4.50;1.98;;;14.70;91.50;;;;;;5031912;28;20048;-46
2022/07/16 01:16:21;;;;;;;6.20;2.22;;;14.60;91.50;;;;;;5031872;28;20330;-48
2022/07/16 01:18:47;;;;;;;7.97;3.17;;;14.70;91.40;;;;;;5064981;28;20108;-47
2022/07/16 01:21:14;;;;;;;7.45;3.30;;;14.60;91.30;;;;;;5051375;28;20024;-46
2022/07/16 01:23:42;;;;;;;7.70;2.40;;;14.60;91.30;;;;;;5051318;28;20039;-46
2022/07/16 01:26:08;;;;;;;5.35;2.45;;;14.60;91.30;;;;;;5068318;28;20038;-46
2022/07/16 01:28:34;;;;;;;11.68;2.65;;;14.60;91.20;;;;;;5068887;28;20030;-46
2022/07/16 01:30:59;;;;;;;7.18;2.30;;;14.60;91.20;;;;;;5068534;28;20032;-47
2022/07/16 01:33:31;;;;;;;8.98;2.50;;;14.60;91.20;;;;;;5068525;28;20039;-46
2022/07/16 01:36:00;;;;;;;7.15;2.22;;;14.50;91.10;;;;;;5036203;28;20098;-45
2022/07/16 01:38:26;;;;;;;8.93;2.50;;;14.60;91.10;;;;;;5049185;28;20330;-46
2022/07/16 01:40:55;;;;;;;6.97;2.10;;;14.60;91.10;;;;;;5050110;28;20335;-46
2022/07/16 01:43:25;;;;;;;3.00;1.60;;;14.60;91.00;;;;;;5067836;28;20033;-48
2022/07/16 01:45:54;;;;;;;7.55;1.83;;;14.50;90.90;;;;;;5068614;28;20032;-48
2022/07/16 01:48:22;;;;;;;7.68;2.17;;;14.50;90.90;;;;;;5069141;28;20071;-47
2022/07/16 01:50:48;;;;;;;6.07;1.40;;;14.50;90.70;;;;;;5051148;28;20036;-46
2022/07/16 01:53:16;;;;;;;4.75;1.50;;;14.40;90.60;;;;;;5068694;28;20081;-46
2022/07/16 01:55:43;;;;;;;5.30;1.95;;;14.40;90.50;;;;;;5068873;28;20039;-46
2022/07/16 01:58:11;;;;;;;2.72;1.27;;;14.40;90.40;;;;;;5051100;28;20089;-47
2022/07/16 02:00:38;;;;;;;5.55;1.63;;;14.40;90.30;;;;;;5076489;28;20025;-46
2022/07/16 02:03:06;;;;;;;6.65;1.70;;;14.30;90.30;;;;;;5051107;28;20131;-46
2022/07/16 02:05:35;;;;;;;3.13;1.25;;;14.30;90.20;;;;;;5068540;28;20025;-47
2022/07/16 02:08:02;;;;;;;6.00;1.87;;;14.20;90.20;;;;;;5051303;28;20462;-46
2022/07/16 02:10:30;;;;;;;3.35;1.40;;;14.20;90.10;;;;;;5050683;28;20429;-45
2022/07/16 02:12:56;;;;;;;4.55;1.73;;;14.10;90.00;;;;;;5051243;28;20028;-46
2022/07/16 02:15:21;;;;;;;7.30;2.08;;;14.10;89.90;;;;;;5050704;28;20040;-45
2022/07/16 02:17:47;;;;;;;7.88;2.45;;;14.10;90.00;;;;;;5068371;28;20028;-45
2022/07/16 02:20:15;;;;;;;8.30;1.80;;;14.00;90.00;;;;;;5068356;28;20380;-48
2022/07/16 02:22:41;;;;;;;6.78;1.85;;;14.00;90.00;;;;;;5068338;28;20391;-45
2022/07/16 02:25:08;;;;;;;6.00;1.83;;;14.00;89.90;;;;;;5068362;28;20028;-46
2022/07/16 02:27:35;;;;;;;7.22;2.15;;;14.00;89.90;;;;;;5067910;28;20035;-46
2022/07/16 02:30:01;;;;;;;3.92;1.75;;;14.00;90.00;;;;;;5050342;28;20029;-46
2022/07/16 02:32:29;;;;;;;10.25;2.88;;;14.00;90.10;;;;;;5050327;28;20028;-46
2022/07/16 02:34:57;;;;;;;4.07;1.83;;;13.90;90.10;;;;;;5068273;28;20115;-46
2022/07/16 02:37:23;;;;;;;7.53;2.10;;;13.90;90.10;;;;;;5068004;28;20044;-46
2022/07/16 02:39:49;;;;;;;6.03;2.95;;;13.90;90.10;;;;;;5054558;28;20082;-45
2022/07/16 02:42:14;;;;;;;6.20;2.13;;;13.90;90.20;;;;;;5054106;28;20424;-46
2022/07/16 02:44:40;;;;;;;9.75;2.40;;;13.90;90.20;;;;;;5041061;28;20057;-46
2022/07/16 02:47:06;;;;;;;8.13;2.60;;;13.90;90.30;;;;;;5051711;28;20040;-48
2022/07/16 02:49:33;;;;;;;6.60;2.55;;;13.90;90.30;;;;;;5051969;28;20032;-46
2022/07/16 02:51:59;;;;;;;6.25;2.15;;;13.90;90.40;;;;;;5052168;28;20040;-46
2022/07/16 02:54:25;;;;;;;9.25;2.13;;;13.90;90.30;;;;;;5052071;28;20025;-46
2022/07/16 02:56:50;;;;;;;12.60;3.13;;;13.90;90.30;;;;;;5051817;28;20033;-46
2022/07/16 02:59:16;;;;;;;9.00;2.60;;;13.90;90.40;;;;;;5034271;28;20076;-47
2022/07/16 03:01:44;;;;;;;6.07;2.17;;;13.80;90.30;;;;;;5051770;28;20017;-46
2022/07/16 03:04:09;;;;;;;5.80;2.30;;;13.90;90.40;;;;;;5048665;28;20377;-50
2022/07/16 03:06:39;;;;;;;6.20;2.45;;;13.90;90.40;;;;;;5052045;28;20099;-48
2022/07/16 03:09:06;;;;;;;7.13;2.30;;;13.90;90.30;;;;;;5051856;28;20033;-46
2022/07/16 03:11:31;;;;;;;8.88;2.53;;;13.80;90.20;;;;;;5037357;28;20038;-46
2022/07/16 03:13:57;;;;;;;6.80;2.25;;;13.80;90.10;;;;;;5031734;28;20087;-48
2022/07/16 03:16:25;;;;;;;8.18;3.50;;;13.70;90.20;;;;;;5031762;28;20447;-48
2022/07/16 03:18:50;;;;;;;8.80;2.97;;;13.70;90.20;;;;;;5050958;28;20021;-46
2022/07/16 03:21:16;;;;;;;9.20;2.70;;;13.70;90.10;;;;;;5033427;28;20938;-45
2022/07/16 03:23:42;;;;;;;6.35;2.55;;;13.80;90.20;;;;;;5051022;28;20028;-45
2022/07/16 03:26:07;;;;;;;6.72;3.10;;;13.80;90.20;;;;;;5033343;28;20021;-46
2022/07/16 03:28:34;;;;;;;9.18;2.75;;;13.80;90.20;;;;;;5046318;28;20319;-46
2022/07/16 03:31:00;;;;;;;7.60;3.53;;;13.70;90.20;;;;;;5050818;28;20040;-46
2022/07/16 03:33:25;;;;;;;11.05;2.65;;;13.80;90.30;;;;;;5050164;28;20029;-61
2022/07/16 03:35:51;;;;;;;7.45;2.80;;;13.80;90.40;;;;;;5049836;28;20357;-57
2022/07/16 03:41:03;;;;;;;7.35;2.35;;;13.90;90.60;;;;;;5050098;28;20075;-58
2022/07/16 03:43:31;;;;;;;7.68;2.88;;;13.90;90.70;;;;;;5053730;28;20104;-52
2022/07/16 03:45:56;;;;;;;9.73;3.25;;;13.90;90.80;;;;;;5070338;28;20040;-48
2022/07/16 03:48:22;;;;;;;9.02;2.88;;;13.90;90.60;;;;;;5069549;28;20024;-50
2022/07/16 03:50:47;;;;;;;10.30;2.42;;;13.90;90.70;;;;;;5053054;28;20496;-52
2022/07/16 03:53:13;;;;;;;9.20;2.30;;;13.90;90.50;;;;;;5036728;28;20032;-48
2022/07/16 03:55:39;;;;;;;6.93;3.20;;;13.90;90.30;;;;;;5070391;28;20129;-51
2022/07/16 03:58:04;;;;;;;5.63;2.55;;;13.90;90.20;;;;;;5070469;28;20033;-50
2022/07/16 04:00:30;;;;;;;6.70;3.15;;;13.90;90.20;;;;;;5069860;28;20420;-50
2022/07/16 04:02:55;;;;;;;6.72;2.58;;;13.90;90.30;;;;;;5070139;28;20056;-48
2022/07/16 04:05:21;;;;;;;6.68;2.58;;;13.90;90.20;;;;;;5051949;28;20115;-48
2022/07/16 04:07:47;;;;;;;4.88;2.65;;;13.90;90.30;;;;;;5069791;28;20034;-49
2022/07/16 04:10:12;;;;;;;7.65;3.28;;;13.90;90.30;;;;;;5069971;28;20445;-48
2022/07/16 04:12:38;;;;;;;7.07;2.78;;;13.90;90.50;;;;;;5069770;28;20024;-48
2022/07/16 04:15:04;;;;;;;7.68;2.97;;;13.90;90.60;;;;;;5052157;28;20334;-49
2022/07/16 04:17:30;;;;;;;6.95;2.25;;;13.90;90.70;;;;;;5069483;28;20121;-49
2022/07/16 04:19:58;;;;;;;10.60;3.03;;;13.90;90.60;;;;;;5069002;28;20104;-47
2022/07/16 04:22:26;;;;;;;14.45;3.05;;;13.80;90.50;;;;;;5069943;28;20024;-47
2022/07/16 04:24:52;;;;;;;9.90;2.63;;;13.80;90.50;;;;;;5070087;28;20036;-49
2022/07/16 04:27:20;;;;;;;7.32;2.40;;;13.80;90.40;;;;;;5052079;28;20043;-48
2022/07/16 04:29:45;;;;;;;13.13;2.97;;;13.80;90.20;;;;;;5069627;28;20048;-47
2022/07/16 04:32:11;;;;;;;5.28;2.05;;;13.70;90.10;;;;;;5069957;28;20033;-47
2022/07/16 04:34:37;;;;;;;8.63;1.95;;;13.70;90.10;;;;;;5052198;28;20356;-47
2022/07/16 04:37:02;;;;;;;8.05;2.05;;;13.80;90.10;;;;;;5051859;28;20033;-47
2022/07/16 04:39:28;;;;;;;11.85;2.53;;;13.70;90.00;;;;;;5069792;28;20033;-46
2022/07/16 04:41:53;;;;;;;5.60;2.00;;;13.80;89.90;;;;;;5068552;28;20449;-47
2022/07/16 04:44:19;;;;;;;11.70;2.67;;;13.90;90.00;;;;;;5051905;28;20047;-46
2022/07/16 04:46:45;;;;;;;11.98;2.30;;;13.90;89.90;;;;;;5051422;28;20520;-46
2022/07/16 04:49:10;;;;;;;6.70;1.92;;;14.00;89.70;;;;;;5060196;28;20411;-45
2022/07/16 04:51:36;;;;;;;11.43;3.00;;;14.00;89.20;;;;;;5068969;28;20483;-49
2022/07/16 04:54:02;;;;;;;8.10;1.63;;;14.00;88.50;;;;;;5052682;28;20039;-45
2022/07/16 04:56:27;;;;;;;8.27;2.40;;;14.00;88.20;;;;;;5051517;28;20035;-45
2022/07/16 04:58:53;;;;;;;11.93;2.17;;;14.00;88.20;;;;;;5069689;28;20035;-45
2022/07/16 05:01:18;;;;;;;9.25;2.58;;;14.00;88.20;;;;;;5051375;28;20355;-45
2022/07/16 05:03:46;;;;;;;7.90;1.60;;;14.10;88.50;;;;;;5069506;28;20024;-44
2022/07/16 05:06:12;;;;;;;8.88;2.10;;;14.10;88.20;;;;;;5069554;28;20028;-46
2022/07/16 05:08:37;;;;;;;17.65;3.10;;;14.20;87.90;;;;;;5068430;28;20361;-44
2022/07/16 05:11:03;;;;;;;11.30;2.22;;;14.30;87.70;;;;;;5052070;28;20032;-44
2022/07/16 05:13:29;;;;;;;15.73;2.45;;;14.20;87.30;;;;;;5069318;28;20117;-43
2022/07/16 05:15:54;;;;;;;8.35;1.90;;;14.20;86.70;;;;;;5069365;28;20803;-44
2022/07/16 05:18:20;;;;;;;9.32;2.38;;;14.20;86.60;;;;;;5068677;28;20043;-44
2022/07/16 05:20:46;;;;;;;10.85;2.00;;;14.20;86.60;;;;;;5068926;28;20502;-44
2022/07/16 05:23:11;;;;;;;10.15;2.00;;;14.20;86.40;;;;;;5051576;28;20025;-42
2022/07/16 05:25:39;;;;;;;12.30;2.50;;;14.30;86.00;;;;;;5069156;28;20028;-44
2022/07/16 05:28:07;;;;;;;9.25;2.20;;;14.20;85.20;;;;;;5049184;28;20024;-43
2022/07/16 05:30:33;;;;;;;10.90;1.40;;;14.30;84.60;;;;;;5049201;28;20365;-44
2022/07/16 05:32:58;;;;;;;10.93;1.83;;;14.40;83.60;;;;;;5068773;28;20036;-44
2022/07/16 05:35:24;;;;;;;5.47;1.88;;;14.40;82.90;;;;;;5051306;28;20116;-44
2022/07/16 05:37:50;;;;;;;9.95;1.83;;;14.40;82.00;;;;;;5068774;28;20049;-44
2022/07/16 05:40:16;;;;;;;9.00;2.03;;;14.40;81.10;;;;;;5068878;28;20330;-44
2022/07/16 05:42:42;;;;;;;8.07;1.48;;;14.30;81.30;;;;;;5050802;28;20031;-44
2022/07/16 05:45:08;;;;;;;7.85;1.60;;;14.30;82.00;;;;;;5069016;28;20503;-42
2022/07/16 05:47:34;;;;;;;7.32;0.95;;;14.20;81.80;;;;;;5068824;28;20048;-43
2022/07/16 05:50:01;;;;;;;8.25;1.95;;;14.20;81.20;;;;;;5068382;28;20033;-44
2022/07/16 05:52:26;;;;;;;10.93;1.90;;;14.20;80.70;;;;;;5068540;28;20037;-44
2022/07/16 05:54:52;;;;;;;4.63;1.48;;;14.30;81.10;;;;;;5050266;28;20032;-44
2022/07/16 05:57:18;;;;;;;8.85;1.70;;;14.50;80.90;;;;;;5050356;28;20116;-44
2022/07/16 05:59:44;;;;;;;5.47;1.40;;;14.70;80.50;;;;;;5068004;28;20038;-44
2022/07/16 06:02:09;;;;;;;8.55;1.27;;;14.80;78.40;;;;;;5068018;28;20107;-44
2022/07/16 06:04:35;;;;;;;5.97;1.48;;;15.00;77.40;;;;;;5049628;28;20074;-44
2022/07/16 06:07:03;;;;;;;6.43;2.03;;;15.30;77.10;;;;;;5049615;28;20036;-48
2022/07/16 06:09:29;;;;;;;4.40;1.52;;;15.40;76.50;;;;;;5067906;28;20475;-44
2022/07/16 06:11:56;;;;;;;9.20;1.77;;;15.40;76.80;;;;;;5051014;28;20036;-45
2022/07/16 06:14:22;;;;;;;8.93;1.65;;;15.50;76.70;;;;;;5072248;28;20029;-47
2022/07/16 06:16:48;;;;;;;6.68;1.30;;;15.60;76.00;;;;;;5072113;28;20039;-48
2022/07/16 06:19:14;;;;;;;4.65;2.10;;;15.60;75.00;;;;;;5072194;28;20020;-44
2022/07/16 06:21:40;;;;;;;7.88;2.13;;;15.70;74.60;;;;;;5072354;28;20029;-45
2022/07/16 06:24:06;;;;;;;5.68;2.15;;;15.70;74.90;;;;;;5054615;28;20039;-45
2022/07/16 06:26:31;;;;;;;7.05;1.60;;;15.80;73.30;;;;;;5071858;28;20524;-46
2022/07/16 06:28:57;;;;;;;8.57;1.73;;;15.70;72.60;;;;;;5072067;28;20113;-46
2022/07/16 06:31:23;;;;;;;8.85;1.90;;;15.80;72.60;;;;;;5071511;28;20457;-45
2022/07/16 06:33:51;;;;;;;10.48;1.83;;;15.80;72.40;;;;;;5071247;28;20059;-45
2022/07/16 06:36:16;;;;;;;10.57;2.25;;;15.80;73.40;;;;;;5068400;28;20492;-45
2022/07/16 06:38:42;;;;;;;11.05;2.80;;;15.90;73.10;;;;;;5070775;28;20068;-48
2022/07/16 06:41:08;;;;;;;6.25;1.38;;;16.00;73.00;;;;;;5071324;28;20035;-47
2022/07/16 06:43:34;;;;;;;8.50;1.83;;;16.20;72.90;;;;;;5070757;28;20177;-45
2022/07/16 06:45:59;;;;;;;8.02;1.42;;;16.20;70.00;;;;;;5070851;28;20028;-46
2022/07/16 06:48:25;;;;;;;7.88;2.00;;;16.00;70.70;;;;;;5053358;28;20031;-46
2022/07/16 06:50:52;;;;;;;9.10;2.58;;;15.90;71.20;;;;;;5071723;28;20515;-48
2022/07/16 06:53:17;;;;;;;8.23;1.83;;;15.70;72.40;;;;;;5071064;28;20024;-46
2022/07/16 06:55:43;;;;;;;9.32;2.42;;;15.40;75.20;;;;;;5070514;28;20430;-46
2022/07/16 06:58:09;;;;;;;9.95;1.80;;;15.30;76.70;;;;;;5067776;28;20029;-48
2022/07/16 07:00:34;;;;;;;9.43;2.35;;;15.20;77.60;;;;;;5053031;28;20016;-46
2022/07/16 07:03:02;;;;;;;8.60;2.00;;;15.20;78.60;;;;;;5070862;28;20021;-46
2022/07/16 07:05:28;;;;;;;7.00;1.02;;;15.20;78.40;;;;;;5064772;28;20062;-46
2022/07/16 07:07:54;;;;;;;15.93;2.88;;;15.40;77.70;;;;;;5071149;28;20048;-46
2022/07/16 07:10:20;;;;;;;7.50;1.77;;;15.40;77.90;;;;;;5071467;28;20043;-46
2022/07/16 07:12:46;;;;;;;11.05;1.70;;;15.60;75.80;;;;;;5071435;28;20032;-46
2022/07/16 07:15:11;;;;;;;7.10;1.38;;;15.70;75.50;;;;;;5053418;28;20124;-46
2022/07/16 07:17:37;;;;;;;9.52;1.90;;;15.90;75.20;;;;;;5071668;28;20029;-49
2022/07/16 07:20:05;;;;;;;8.20;2.10;;;15.90;75.20;;;;;;5071431;28;20361;-46
2022/07/16 07:22:31;;;;;;;5.00;1.27;;;15.90;74.90;;;;;;5070914;28;20392;-48
2022/07/16 07:24:57;;;;;;;8.13;1.70;;;15.80;76.00;;;;;;5070267;28;20033;-47
2022/07/16 07:27:22;;;;;;;5.13;1.60;;;15.90;76.30;;;;;;5070538;28;20024;-47
2022/07/16 07:29:48;;;;;;;10.68;1.90;;;15.90;74.30;;;;;;5069905;28;20051;-47
2022/07/16 07:32:14;;;;;;;8.05;1.73;;;16.10;74.70;;;;;;5051853;28;20020;-46
2022/07/16 07:34:40;;;;;;;7.63;1.85;;;16.20;71.80;;;;;;5070735;28;20029;-46
2022/07/16 07:37:06;;;;;;;8.00;2.60;;;16.70;70.70;;;;;;5070584;28;20035;-46
2022/07/16 07:39:31;;;;;;;10.73;1.63;;;17.40;68.30;;;;;;5070457;28;20432;-46
2022/07/16 07:41:57;;;;;;;13.95;2.45;;;17.30;67.90;;;;;;5069628;28;20085;-46
2022/07/16 07:44:22;;;;;;;7.30;1.55;;;16.70;68.40;;;;;;5070309;28;20045;-45
2022/07/16 07:46:48;;;;;;;6.35;1.67;;;16.40;70.00;;;;;;5050173;28;20032;-47
2022/07/16 07:49:14;;;;;;;7.00;1.60;;;16.10;70.90;;;;;;5052544;28;20063;-46
2022/07/16 07:51:39;;;;;;;7.25;1.48;;;16.40;71.50;;;;;;5069190;28;20048;-46
2022/07/16 07:54:05;;;;;;;10.77;2.33;;;17.10;70.40;;;;;;5069508;28;20067;-47
2022/07/16 07:56:31;;;;;;;10.02;2.00;;;17.70;68.70;;;;;;5051642;28;20059;-46
2022/07/16 07:58:56;;;;;;;6.22;1.77;;;18.40;65.90;;;;;;5068908;28;20485;-47
2022/07/16 08:01:22;;;;;;;7.63;1.65;;;19.10;63.60;;;;;;5065138;28;20106;-46
2022/07/16 08:03:48;;;;;;;7.75;1.83;;;19.80;59.50;;;;;;5069668;28;20454;-46
2022/07/16 08:06:16;;;;;;;10.52;2.00;;;19.50;61.30;;;;;;5069643;28;20362;-46
2022/07/16 08:08:41;;;;;;;7.82;2.10;;;18.90;61.30;;;;;;5051578;28;20044;-46
2022/07/16 08:11:08;;;;;;;9.88;1.65;;;18.30;63.10;;;;;;5068126;28;20090;-47
2022/07/16 08:13:33;;;;;;;6.63;1.13;;;17.80;64.60;;;;;;5069023;28;20056;-48
2022/07/16 08:15:59;;;;;;;6.55;1.48;;;17.40;65.40;;;;;;5069689;28;20064;-47
2022/07/16 08:18:24;;;;;;;9.45;2.10;;;17.30;65.60;;;;;;5069589;28;20040;-48
2022/07/16 08:20:50;;;;;;;7.05;1.25;;;17.20;65.60;;;;;;5052394;28;20036;-49
2022/07/16 08:25:44;;;;;;;11.95;2.08;;;17.10;66.00;;;;;;5069716;28;20481;-47
2022/07/16 08:26:04;;;;;;;10.35;2.03;;;17.00;67.60;;;;;;5070083;28;21795;-48
2022/07/16 08:28:30;;;;;;;14.02;2.90;;;17.10;68.80;;;;;;5070064;28;20100;-47
2022/07/16 08:30:55;;;;;;;12.23;2.17;;;17.10;70.10;;;;;;5069851;28;20064;-48
2022/07/16 08:33:21;;;;;;;7.18;1.50;;;17.30;70.20;;;;;;5069550;28;20469;-46
2022/07/16 08:35:49;;;;;;;7.97;1.70;;;17.40;69.30;;;;;;5068657;28;20032;-47
2022/07/16 08:38:14;;;;;;;13.45;2.83;;;17.70;68.00;;;;;;5052465;28;20028;-47
2022/07/16 08:40:43;;;;;;;11.98;2.67;;;17.80;68.70;;;;;;5069227;28;20028;-46
2022/07/16 08:43:09;;;;;;;10.80;1.90;;;17.90;68.10;;;;;;5051527;28;20029;-46
2022/07/16 08:45:38;;;;;;;6.90;1.75;;;18.10;67.40;;;;;;5068988;28;20028;-46
2022/07/16 08:48:05;;;;;;;7.47;1.52;;;18.20;68.20;;;;;;5052544;28;20039;-47
2022/07/16 08:50:30;;;;;;;6.15;1.88;;;18.20;66.80;;;;;;5069648;28;20112;-47
2022/07/16 08:52:57;;;;;;;9.05;1.75;;;17.90;67.70;;;;;;5069667;28;20103;-47
2022/07/16 08:55:25;;;;;;;6.40;1.92;;;17.70;67.30;;;;;;5069535;28;20108;-47
2022/07/16 08:57:55;;;;;;;9.20;2.05;;;17.50;68.00;;;;;;5069349;28;20044;-46
2022/07/16 09:00:21;;;;;;;6.07;1.75;;;17.90;69.30;;;;;;5069721;28;20051;-47
2022/07/16 09:02:49;;;;;;;6.85;2.10;;;18.30;65.60;;;;;;5068512;28;20036;-46
2022/07/16 09:05:15;;;;;;;7.88;1.27;;;18.60;64.20;;;;;;5034654;28;20032;-47
2022/07/16 09:07:41;;;;;;;9.35;2.40;;;19.10;63.30;;;;;;5068671;28;20043;-46
2022/07/16 09:10:08;;;;;;;7.35;1.42;;;19.40;63.60;;;;;;5050986;28;20142;-47
2022/07/16 09:12:35;;;;;;;4.85;1.40;;;19.40;62.40;;;;;;5051632;28;20189;-46
2022/07/16 09:15:25;;;;;;;6.32;1.42;;;19.90;60.30;;;;;;5069286;28;20024;-47
2022/07/16 09:18:09;;;;;;;6.28;1.75;;;20.40;56.90;;;;;;5069233;28;20030;-47
2022/07/16 09:20:36;;;;;;;4.03;1.30;;;20.90;55.40;;;;;;5050674;28;20036;-50
2022/07/16 09:23:02;;;;;;;6.18;1.33;;;20.90;56.10;;;;;;5066033;28;20027;-47
2022/07/16 09:25:28;;;;;;;3.78;1.17;;;20.40;55.50;;;;;;5033828;28;20104;-46
2022/07/16 09:28:01;;;;;;;4.57;1.05;;;19.50;54.70;;;;;;5069038;28;20036;-46
2022/07/16 09:30:27;;;;;;;6.82;1.05;;;19.50;54.60;;;;;;5068496;28;20040;-46
2022/07/16 09:32:56;;;;;;;5.57;1.52;;;19.50;54.40;;;;;;5068998;28;20353;-50
2022/07/16 09:35:22;;;;;;;5.85;0.93;;;19.40;55.40;;;;;;5068541;28;20111;-48
2022/07/16 09:37:54;;;;;;;5.85;1.20;;;19.70;54.70;;;;;;5051294;28;20128;-46
2022/07/16 09:40:40;;;;;;;3.53;1.00;;;20.10;53.90;;;;;;5050948;28;20089;-47
2022/07/16 09:43:15;;;;;;;11.23;4.40;;;20.60;52.90;;;;;;5068628;28;20021;-48
2022/07/16 09:45:47;;;;;;;5.50;1.98;;;20.90;53.00;;;;;;5068153;28;20033;-46
2022/07/16 09:48:25;;;;;;;9.45;2.17;;;20.80;52.90;;;;;;5068100;28;20036;-47
2022/07/16 09:50:57;;;;;;;6.97;2.17;;;20.90;54.40;;;;;;5067615;28;20028;-47
2022/07/16 09:53:25;;;;;;;7.07;1.20;;;20.90;52.70;;;;;;5048001;28;20028;-48
2022/07/16 09:56:08;;;;;;;7.78;2.65;;;20.40;53.60;;;;;;5049963;28;20124;-46
2022/07/16 09:58:35;;;;;;;11.35;2.33;;;20.10;55.20;;;;;;5067737;28;20385;-45
2022/07/16 10:01:02;;;;;;;6.55;1.60;;;19.80;56.40;;;;;;5067765;28;20024;-49
2022/07/16 10:03:28;;;;;;;8.05;1.65;;;19.40;57.90;;;;;;5067898;28;20106;-46
2022/07/16 10:05:54;;;;;;;10.23;1.67;;;19.80;58.80;;;;;;5068842;28;20090;-46
2022/07/16 10:08:23;;;;;;;9.25;1.73;;;20.10;56.90;;;;;;5068478;28;20107;-48
2022/07/16 10:10:52;;;;;;;6.15;1.48;;;20.40;55.60;;;;;;5050842;28;20033;-47
2022/07/16 10:13:26;;;;;;;5.70;2.00;;;20.00;56.40;;;;;;5068248;28;20068;-47
2022/07/16 10:15:52;;;;;;;4.97;1.23;;;20.30;54.10;;;;;;5068410;28;20046;-51
2022/07/16 10:18:31;;;;;;;4.53;1.00;;;19.90;54.20;;;;;;5068097;28;20416;-46
2022/07/16 10:21:20;;;;;;;5.20;1.23;;;19.40;56.50;;;;;;5050744;28;20049;-47
2022/07/16 10:23:48;;;;;;;5.07;1.10;;;19.00;55.50;;;;;;5068440;28;20373;-47
2022/07/16 10:26:21;;;;;;;6.75;1.70;;;18.90;56.70;;;;;;5068297;28;20588;-46
2022/07/16 10:28:54;;;;;;;11.13;1.50;;;19.20;58.00;;;;;;5048418;28;20037;-48
2022/07/16 10:32:27;;;;;;;4.90;1.63;;;19.20;56.00;;;;;;5064489;28;20072;-47
2022/07/16 10:34:35;;;;;;;5.43;1.23;;;19.20;58.90;;;;;;5067750;28;20113;-49
2022/07/16 10:37:02;;;;;;;12.85;1.75;;;19.00;58.90;;;;;;5068236;28;20086;-46
2022/07/16 10:39:28;;;;;;;8.35;1.60;;;19.50;56.10;;;;;;5068297;28;20024;-47
2022/07/16 10:41:59;;;;;;;3.30;0.90;;;19.70;55.50;;;;;;5050192;28;20021;-47
2022/07/16 10:44:44;;;;;;;8.88;1.65;;;20.30;54.70;;;;;;5068102;28;20048;-48
2022/07/16 10:47:11;;;;;;;9.95;2.00;;;20.50;54.20;;;;;;5067924;28;20524;-46
2022/07/16 10:49:40;;;;;;;6.82;1.80;;;20.40;54.20;;;;;;5068344;28;20460;-47
2022/07/16 10:52:14;;;;;;;7.00;1.83;;;20.30;53.40;;;;;;5068214;28;20039;-48
2022/07/16 10:54:41;;;;;;;7.40;1.77;;;20.20;53.30;;;;;;5068391;28;20258;-48
2022/07/16 10:57:10;;;;;;;5.15;1.60;;;19.70;52.80;;;;;;5068358;28;20024;-50
2022/07/16 10:59:45;;;;;;;4.70;1.42;;;19.60;53.60;;;;;;5070244;28;20174;-49
2022/07/16 11:02:13;;;;;;;5.07;1.27;;;19.90;52.50;;;;;;5071365;28;20107;-49
2022/07/16 11:04:49;;;;;;;7.55;1.10;;;20.00;53.50;;;;;;5063176;28;20024;-48
2022/07/16 11:07:19;;;;;;;7.47;1.58;;;20.40;52.60;;;;;;5071690;28;20033;-50
2022/07/16 11:09:48;;;;;;;7.55;1.33;;;20.50;53.40;;;;;;5054415;28;20691;-46
2022/07/16 11:12:18;;;;;;;4.47;0.95;;;20.70;51.00;;;;;;5071653;28;20583;-50
2022/07/16 11:14:48;;;;;;;3.88;0.90;;;20.70;52.00;;;;;;5071284;28;20039;-48
2022/07/16 11:17:18;;;;;;;5.50;1.35;;;20.60;50.40;;;;;;5071191;28;20036;-46
2022/07/16 11:19:49;;;;;;;5.22;1.30;;;20.10;51.50;;;;;;5070962;28;20365;-52
2022/07/16 11:22:20;;;;;;;6.30;1.13;;;19.60;52.90;;;;;;5037056;28;20026;-48
2022/07/16 11:24:52;;;;;;;5.35;0.90;;;19.60;52.50;;;;;;5071066;28;20029;-47
2022/07/16 11:27:24;;;;;;;6.35;1.38;;;19.90;53.20;;;;;;5053402;28;20442;-46
2022/07/16 11:29:58;;;;;;;5.32;1.08;;;20.10;52.30;;;;;;5070970;28;20028;-48
2022/07/16 11:32:24;;;;;;;9.05;1.63;;;20.40;50.20;;;;;;5071329;28;20029;-49
2022/07/16 11:34:49;;;;;;;4.63;1.00;;;20.50;50.30;;;;;;5071246;28;20116;-49
2022/07/16 11:37:15;;;;;;;5.78;1.30;;;20.40;51.60;;;;;;5070709;28;20116;-47
2022/07/16 11:39:42;;;;;;;5.85;1.73;;;20.60;52.20;;;;;;5070767;28;20429;-47
2022/07/16 11:42:10;;;;;;;7.00;1.20;;;20.90;51.20;;;;;;5070337;28;20020;-47
2022/07/16 11:44:42;;;;;;;5.22;1.05;;;20.90;50.80;;;;;;5052613;28;20046;-47
2022/07/16 11:47:11;;;;;;;6.95;1.80;;;20.60;51.70;;;;;;5070746;28;20046;-47
2022/07/16 11:49:42;;;;;;;3.22;0.93;;;20.00;51.30;;;;;;5071006;28;20346;-47
2022/07/16 11:52:22;;;;;;;3.47;1.00;;;19.90;54.30;;;;;;5070798;28;20028;-46
2022/07/16 11:54:48;;;;;;;6.63;1.00;;;19.40;54.10;;;;;;5052343;28;20035;-48
2022/07/16 11:57:14;;;;;;;6.80;1.75;;;19.20;55.20;;;;;;5052424;28;20036;-48
2022/07/16 11:59:47;;;;;;;7.10;1.40;;;19.30;56.10;;;;;;5066782;28;20042;-47
2022/07/16 12:02:14;;;;;;;4.28;1.35;;;19.10;55.30;;;;;;5069960;28;20036;-50
2022/07/16 12:04:47;;;;;;;4.93;1.30;;;18.90;55.20;;;;;;5069497;28;20020;-50
2022/07/16 12:07:15;;;;;;;3.25;0.88;;;18.90;56.40;;;;;;5068217;28;20020;-48
2022/07/16 12:09:46;;;;;;;4.28;1.00;;;18.90;57.80;;;;;;5069422;28;20043;-47
2022/07/16 12:12:27;;;;;;;5.90;1.70;;;19.00;59.00;;;;;;5051909;28;20036;-48
2022/07/16 12:14:54;;;;;;;5.80;1.30;;;19.40;58.40;;;;;;5055455;28;20405;-49
2022/07/16 12:17:31;;;;;;;8.27;1.75;;;19.20;58.80;;;;;;5053480;28;20043;-47
2022/07/16 12:20:15;;;;;;;8.02;2.03;;;19.20;58.90;;;;;;5051242;28;20389;-49
2022/07/16 12:22:59;;;;;;;9.10;1.38;;;19.00;58.60;;;;;;5055047;28;20075;-49
2022/07/16 12:25:27;;;;;;;7.40;1.55;;;18.70;60.90;;;;;;5064112;28;20024;-48
2022/07/16 12:27:56;;;;;;;10.13;2.38;;;18.30;61.70;;;;;;5049621;28;20033;-47
2022/07/16 12:30:35;;;;;;;8.10;1.38;;;18.00;63.50;;;;;;5053318;28;20342;-46
2022/07/16 12:33:07;;;;;;;11.48;1.45;;;17.90;64.70;;;;;;5039377;28;20036;-49
2022/07/16 12:35:38;;;;;;;8.13;1.98;;;17.70;64.10;;;;;;5055465;28;20358;-49
2022/07/16 12:38:07;;;;;;;10.30;2.50;;;17.70;64.00;;;;;;5049879;28;20422;-48
2022/07/16 12:40:34;;;;;;;10.35;2.30;;;17.80;63.20;;;;;;5054361;28;20642;-49
2022/07/16 12:43:01;;;;;;;11.27;2.70;;;17.80;63.70;;;;;;5039033;28;20032;-49
2022/07/16 12:45:27;;;;;;;8.10;1.83;;;18.00;64.40;;;;;;5050629;28;20124;-48
2022/07/16 12:47:55;;;;;;;5.22;1.80;;;18.20;64.40;;;;;;5050253;28;20375;-47
2022/07/16 12:50:21;;;;;;;7.95;2.40;;;18.30;63.70;;;;;;5055128;28;20036;-48
2022/07/16 12:52:46;;;;;;;7.25;1.85;;;18.00;64.20;;;;;;5040330;28;20036;-47